Time;durP1;ratioP1;P1;durP2;ratioP2;P2;SDS_P1;SDS_P2;PMS_P1;PMS_P2;Temp;Humidity;BMP_temperature;BMP_pressure;BME280_temperature;BME280_humidity;BME280_pressure;Samples;Min_cycle;Max_cycle;Signal;HPM_P1;HPM_P2
2022/03/06 00:02:05;;;;;;;76.28;36.40;;;;;;;0.02;88.18;100365.50;5074763;28;20432;-77
2022/03/06 00:04:30;;;;;;;93.20;42.63;;;;;;;-0.03;87.69;100357.78;5074418;28;20522;-77
2022/03/06 00:06:57;;;;;;;95.55;40.85;;;;;;;0.11;88.77;100374.97;5074581;28;20064;-77
2022/03/06 00:09:23;;;;;;;90.50;37.70;;;;;;;0.11;88.58;100372.41;5074791;28;20029;-77
2022/03/06 00:11:49;;;;;;;102.07;40.88;;;;;;;0.08;88.84;100372.38;5074649;28;20020;-77
2022/03/06 00:14:14;;;;;;;101.45;44.65;;;;;;;0.05;89.32;100369.81;5074598;28;20031;-77
2022/03/06 00:16:41;;;;;;;90.53;44.58;;;;;;;0.07;90.05;100370.66;5074214;28;20111;-77
2022/03/06 00:19:06;;;;;;;93.53;45.42;;;;;;;0.07;90.31;100374.06;5073103;28;20052;-77
2022/03/06 00:21:34;;;;;;;81.65;40.72;;;;;;;0.07;91.07;100373.22;5074454;28;20420;-77
2022/03/06 00:23:59;;;;;;;76.35;37.90;;;;;;;0.13;91.07;100375.84;5074602;28;20034;-77
2022/03/06 00:26:25;;;;;;;68.63;36.53;;;;;;;0.07;91.07;100366.41;5074168;28;20399;-77
2022/03/06 00:28:50;;;;;;;60.85;33.55;;;;;;;0.10;90.92;100371.56;5074370;28;20024;-77
2022/03/06 00:31:15;;;;;;;69.32;34.25;;;;;;;-0.02;90.57;100345.84;5074262;28;20099;-77
2022/03/06 00:33:41;;;;;;;81.47;39.35;;;;;;;0.09;90.46;100372.41;5072631;28;20037;-77
2022/03/06 00:36:06;;;;;;;131.93;55.80;;;;;;;0.09;89.93;100367.28;5073792;28;20024;-77
2022/03/06 00:38:31;;;;;;;112.95;51.47;;;;;;;0.07;90.03;100363.84;5074032;28;20028;-77
2022/03/06 00:40:57;;;;;;;77.88;36.83;;;;;;;0.06;88.96;100368.97;5074242;28;20088;-77
2022/03/06 00:43:22;;;;;;;69.72;35.40;;;;;;;0.05;89.02;100362.97;5074094;28;20024;-77
2022/03/06 00:45:48;;;;;;;59.15;31.00;;;;;;;0.05;88.70;100369.81;5073544;28;20044;-77
2022/03/06 00:48:13;;;;;;;69.15;35.47;;;;;;;0.05;88.22;100370.66;5073928;28;20048;-77
2022/03/06 00:50:39;;;;;;;60.90;32.80;;;;;;;-0.06;88.07;100347.53;5073982;28;20028;-77
2022/03/06 00:53:05;;;;;;;57.60;32.03;;;;;;;0.05;87.85;100372.38;5072618;28;20029;-77
2022/03/06 00:55:31;;;;;;;53.90;30.15;;;;;;;-0.04;87.53;100356.09;5072459;28;20068;-77
2022/03/06 00:57:57;;;;;;;57.35;33.78;;;;;;;0.08;87.35;100374.94;5073899;28;20055;-77
2022/03/06 01:00:23;;;;;;;64.38;33.65;;;;;;;-0.06;86.59;100349.22;5073739;28;20476;-77
2022/03/06 01:02:48;;;;;;;62.67;36.00;;;;;;;0.02;87.54;100362.94;5073577;28;20487;-77
2022/03/06 01:05:14;;;;;;;55.50;30.63;;;;;;;0.03;86.94;100364.66;5073788;28;20391;-77
2022/03/06 01:07:39;;;;;;;62.85;30.92;;;;;;;-0.06;86.99;100346.66;5073365;28;20016;-77
2022/03/06 01:10:05;;;;;;;46.60;26.95;;;;;;;-0.04;86.78;100353.53;5073545;28;20181;-77
2022/03/06 01:12:31;;;;;;;45.78;26.13;;;;;;;-0.03;86.91;100349.25;5073257;28;20032;-77
2022/03/06 01:14:56;;;;;;;47.53;26.30;;;;;;;0.01;86.77;100353.56;5073476;28;20025;-77
2022/03/06 01:17:22;;;;;;;51.15;28.88;;;;;;;0.02;86.66;100362.94;5072124;28;20032;-77
2022/03/06 01:19:48;;;;;;;46.50;26.92;;;;;;;0.00;87.13;100351.84;5071955;28;20032;-77
2022/03/06 01:22:14;;;;;;;49.30;26.70;;;;;;;0.06;86.88;100362.13;5073299;28;20499;-77
2022/03/06 01:24:39;;;;;;;48.92;27.20;;;;;;;-0.05;87.12;100350.94;5073142;28;20032;-77
2022/03/06 01:27:04;;;;;;;80.15;35.95;;;;;;;-0.06;87.29;100344.09;5073182;28;20021;-77
2022/03/06 01:29:30;;;;;;;63.15;32.47;;;;;;;0.04;87.17;100362.94;5071648;28;20034;-77
2022/03/06 01:31:55;;;;;;;58.88;29.67;;;;;;;-0.03;87.38;100359.50;5073026;28;20361;-77
2022/03/06 01:34:21;;;;;;;68.82;32.40;;;;;;;-0.02;87.77;100358.66;5073068;28;20098;-77
2022/03/06 01:36:46;;;;;;;72.30;33.80;;;;;;;-0.12;87.80;100346.63;5072796;28;20028;-77
2022/03/06 01:39:11;;;;;;;60.58;31.13;;;;;;;-0.04;87.41;100353.53;5071714;28;20028;-77
2022/03/06 01:41:37;;;;;;;66.72;32.70;;;;;;;-0.08;87.85;100359.47;5071417;28;20070;-77
2022/03/06 01:44:04;;;;;;;55.00;30.67;;;;;;;-0.16;88.61;100345.75;5071674;28;20115;-77
2022/03/06 01:46:29;;;;;;;61.33;33.92;;;;;;;-0.09;87.69;100362.00;5071476;28;20060;-77
2022/03/06 01:48:55;;;;;;;65.85;32.33;;;;;;;-0.15;88.06;100354.28;5072767;28;20024;-77
2022/03/06 01:51:20;;;;;;;75.03;35.75;;;;;;;-0.21;87.37;100341.41;5072631;28;20029;-77
2022/03/06 01:53:46;;;;;;;85.57;39.28;;;;;;;-0.24;87.92;100339.72;5072603;28;20060;-77
2022/03/06 01:56:13;;;;;;;73.10;35.55;;;;;;;-0.21;87.53;100349.97;5072619;28;20036;-77
2022/03/06 01:58:40;;;;;;;65.18;32.38;;;;;;;-0.21;86.83;100351.66;5072392;28;20481;-77
2022/03/06 02:01:06;;;;;;;67.47;34.17;;;;;;;-0.28;86.49;100333.69;5072418;28;20177;-77
2022/03/06 02:03:31;;;;;;;69.72;30.98;;;;;;;-0.27;85.62;100347.34;5071075;28;20028;-77
2022/03/06 02:05:57;;;;;;;60.17;29.98;;;;;;;-0.29;85.85;100339.66;5071226;28;20028;-77
2022/03/06 02:08:22;;;;;;;48.33;27.77;;;;;;;-0.33;86.02;100329.41;5072758;28;20441;-77
2022/03/06 02:10:50;;;;;;;61.35;32.03;;;;;;;-0.22;86.14;100362.75;5072258;28;20020;-77
2022/03/06 02:13:16;;;;;;;75.10;35.50;;;;;;;-0.24;86.79;100359.34;5072413;28;20067;-77
2022/03/06 02:15:44;;;;;;;87.60;39.97;;;;;;;-0.26;86.57;100361.84;5072126;28;20060;-77
2022/03/06 02:18:09;;;;;;;96.07;40.92;;;;;;;-0.25;86.18;100361.03;5072496;28;20025;-77
2022/03/06 02:20:36;;;;;;;109.18;40.47;;;;;;;-0.37;86.49;100346.44;5072154;28;20509;-77
2022/03/06 02:23:02;;;;;;;104.40;41.03;;;;;;;-0.26;86.31;100351.63;5072200;28;20523;-77
2022/03/06 02:25:33;;;;;;;80.07;33.28;;;;;;;-0.23;86.26;100361.03;5072225;28;20025;-77
2022/03/06 02:28:03;;;;;;;56.58;28.77;;;;;;;-0.27;86.02;100350.75;5070755;28;20025;-77
2022/03/06 02:30:31;;;;;;;69.17;32.43;;;;;;;-0.20;86.11;100353.41;5072304;28;20028;-77
2022/03/06 02:32:59;;;;;;;81.07;35.33;;;;;;;-0.26;86.15;100346.50;5071997;28;20419;-77
2022/03/06 02:35:25;;;;;;;69.68;32.10;;;;;;;-0.28;86.21;100337.97;5072126;28;20039;-78
2022/03/06 02:37:51;;;;;;;137.50;59.17;;;;;;;-0.26;85.84;100341.38;5071838;28;20025;-77
2022/03/06 02:40:18;;;;;;;107.25;48.83;;;;;;;-0.26;86.16;100341.38;5072040;28;20027;-77
2022/03/06 02:42:46;;;;;;;91.43;42.40;;;;;;;-0.24;86.09;100342.25;5071629;28;20024;-77
2022/03/06 02:45:17;;;;;;;84.97;34.10;;;;;;;-0.31;85.78;100326.00;5071968;28;20041;-76
2022/03/06 02:47:44;;;;;;;65.25;32.13;;;;;;;-0.29;85.63;100321.75;5071790;28;20024;-77
2022/03/06 02:50:14;;;;;;;65.57;29.55;;;;;;;-0.27;85.41;100326.88;5070674;28;20109;-77
2022/03/06 02:52:40;;;;;;;57.83;28.98;;;;;;;-0.22;85.79;100340.56;5071635;28;20056;-77
2022/03/06 02:55:07;;;;;;;45.83;24.65;;;;;;;-0.20;86.21;100336.31;5070503;28;20055;-77
2022/03/06 02:57:32;;;;;;;37.47;21.08;;;;;;;-0.26;86.29;100320.91;5072050;28;20029;-77
2022/03/06 02:59:58;;;;;;;40.42;22.55;;;;;;;-0.19;86.91;100340.59;5070453;28;20054;-77
2022/03/06 03:02:23;;;;;;;42.30;23.25;;;;;;;-0.20;86.56;100338.03;5071873;28;20122;-77
2022/03/06 03:04:49;;;;;;;40.05;22.27;;;;;;;-0.22;86.66;100332.88;5071915;28;20032;-77
2022/03/06 03:07:15;;;;;;;47.15;26.67;;;;;;;-0.12;86.38;100341.50;5071749;28;20032;-77
2022/03/06 03:09:40;;;;;;;50.28;28.13;;;;;;;-0.11;86.33;100345.78;5071394;28;20037;-77
2022/03/06 03:12:06;;;;;;;47.58;26.17;;;;;;;-0.21;86.16;100329.50;5071934;28;20427;-77
2022/03/06 03:14:32;;;;;;;48.72;27.25;;;;;;;-0.11;85.87;100348.34;5070501;28;20029;-77
2022/03/06 03:17:01;;;;;;;43.55;24.30;;;;;;;-0.16;85.84;100339.78;5070160;28;20357;-77
2022/03/06 03:19:26;;;;;;;50.25;27.98;;;;;;;-0.18;85.95;100338.88;5071570;28;20392;-77
2022/03/06 03:21:52;;;;;;;45.92;26.52;;;;;;;-0.14;85.76;100341.47;5071423;28;20027;-77
2022/03/06 03:24:18;;;;;;;54.13;27.75;;;;;;;-0.24;85.97;100326.91;5071547;28;20032;-77
2022/03/06 03:26:43;;;;;;;51.35;25.75;;;;;;;-0.22;85.78;100337.16;5071274;28;20020;-77
2022/03/06 03:29:08;;;;;;;49.00;25.90;;;;;;;-0.17;85.39;100345.72;5072146;28;20179;-77
2022/03/06 03:31:34;;;;;;;41.10;25.77;;;;;;;-0.28;85.84;100320.03;5070387;28;20384;-77
2022/03/06 03:33:59;;;;;;;42.10;23.48;;;;;;;-0.18;86.21;100346.56;5071314;28;20074;-77
2022/03/06 03:36:25;;;;;;;53.80;27.88;;;;;;;-0.23;86.57;100343.97;5071818;28;20078;-77
2022/03/06 03:38:50;;;;;;;46.47;26.42;;;;;;;-0.30;86.91;100327.69;5071475;28;20032;-77
2022/03/06 03:41:16;;;;;;;44.08;25.80;;;;;;;-0.28;87.46;100338.81;5070061;28;20024;-77
2022/03/06 03:43:41;;;;;;;45.85;26.45;;;;;;;-0.31;87.58;100330.25;5071311;28;20031;-77
2022/03/06 03:46:07;;;;;;;48.55;26.15;;;;;;;-0.24;87.94;100351.66;5069959;28;20041;-77
2022/03/06 03:48:32;;;;;;;47.15;27.20;;;;;;;-0.26;88.41;100343.94;5071393;28;20067;-77
2022/03/06 03:50:58;;;;;;;43.15;26.13;;;;;;;-0.33;87.88;100345.59;5069812;28;20052;-77
2022/03/06 03:53:24;;;;;;;45.95;26.40;;;;;;;-0.31;88.11;100351.59;5071551;28;20094;-77
2022/03/06 03:55:51;;;;;;;48.75;27.45;;;;;;;-0.28;87.93;100353.31;5069954;28;20020;-77
2022/03/06 03:58:16;;;;;;;43.45;26.90;;;;;;;-0.40;88.70;100336.16;5071383;28;20036;-77
2022/03/06 04:00:45;;;;;;;46.58;26.17;;;;;;;-0.29;89.27;100355.03;5071188;28;20024;-77
2022/03/06 04:03:11;;;;;;;51.78;27.30;;;;;;;-0.34;89.06;100349.03;5071315;28;20087;-77
2022/03/06 04:05:37;;;;;;;47.38;28.60;;;;;;;-0.34;89.55;100343.91;5071487;28;20052;-77
2022/03/06 04:08:02;;;;;;;55.20;28.67;;;;;;;-0.36;89.54;100342.16;5070794;28;20024;-77
2022/03/06 04:10:28;;;;;;;47.97;26.85;;;;;;;-0.43;89.72;100331.00;5072851;28;20024;-77
2022/03/06 04:12:53;;;;;;;58.20;29.23;;;;;;;-0.49;89.92;100323.28;5074645;28;20067;-77
2022/03/06 04:15:19;;;;;;;69.10;31.00;;;;;;;-0.41;89.83;100342.13;5075015;28;20032;-77
2022/03/06 04:17:44;;;;;;;53.45;28.55;;;;;;;-0.32;89.75;100349.88;5074386;28;20115;-77
2022/03/06 04:20:10;;;;;;;52.42;26.85;;;;;;;-0.32;89.51;100351.59;5073196;28;20058;-77
2022/03/06 04:22:35;;;;;;;54.22;28.85;;;;;;;-0.34;89.77;100351.56;5073074;28;20029;-76
2022/03/06 04:25:01;;;;;;;49.80;27.20;;;;;;;-0.39;89.57;100352.34;5074374;28;20068;-77
2022/03/06 04:27:26;;;;;;;49.50;27.75;;;;;;;-0.38;90.12;100351.50;5072994;28;20024;-77
2022/03/06 04:29:52;;;;;;;47.75;27.23;;;;;;;-0.53;90.04;100324.94;5074301;28;20105;-77
2022/03/06 04:32:17;;;;;;;50.28;27.45;;;;;;;-0.33;89.87;100355.00;5073082;28;20020;-77
2022/03/06 04:34:43;;;;;;;54.22;27.58;;;;;;;-0.44;89.53;100343.78;5074085;28;20102;-77
2022/03/06 04:37:08;;;;;;;50.08;28.10;;;;;;;-0.33;90.03;100357.56;5074241;28;20028;-77
2022/03/06 04:39:34;;;;;;;48.50;27.17;;;;;;;-0.36;89.89;100357.50;5074203;28;20039;-77
2022/03/06 04:42:00;;;;;;;47.53;26.73;;;;;;;-0.45;89.68;100340.38;5072946;28;20029;-77
2022/03/06 04:44:25;;;;;;;53.65;27.92;;;;;;;-0.39;89.69;100342.13;5074329;28;20024;-77
2022/03/06 04:46:50;;;;;;;45.53;26.48;;;;;;;-0.55;90.20;100312.97;5073911;28;20049;-77
2022/03/06 04:49:16;;;;;;;50.83;28.95;;;;;;;-0.41;90.10;100343.81;5073934;28;20025;-77
2022/03/06 04:51:41;;;;;;;46.97;27.33;;;;;;;-0.36;90.37;100353.25;5073673;28;20024;-77
2022/03/06 04:54:07;;;;;;;48.53;26.95;;;;;;;-0.35;90.10;100351.53;5073883;28;20064;-77
2022/03/06 04:56:34;;;;;;;48.70;26.88;;;;;;;-0.37;90.49;100348.97;5074093;28;20091;-77
2022/03/06 04:58:59;;;;;;;45.33;27.83;;;;;;;-0.38;90.35;100348.94;5073789;28;20077;-77
2022/03/06 05:01:25;;;;;;;48.45;26.95;;;;;;;-0.37;90.13;100348.97;5073860;28;20028;-77
2022/03/06 05:03:50;;;;;;;44.03;25.90;;;;;;;-0.45;89.53;100335.25;5073530;28;20028;-77
2022/03/06 05:06:16;;;;;;;47.92;28.30;;;;;;;-0.41;89.67;100338.72;5072288;28;20028;-77
2022/03/06 05:08:41;;;;;;;46.88;27.38;;;;;;;-0.41;89.34;100342.13;5073590;28;20037;-77
2022/03/06 05:11:07;;;;;;;55.72;29.60;;;;;;;-0.39;89.93;100345.53;5073560;28;20025;-77
2022/03/06 05:13:32;;;;;;;44.75;27.30;;;;;;;-0.39;89.79;100347.25;5073660;28;20048;-77
2022/03/06 05:15:58;;;;;;;45.00;26.48;;;;;;;-0.50;89.69;100334.38;5072059;28;20468;-77
2022/03/06 05:18:23;;;;;;;53.85;30.33;;;;;;;-0.43;89.16;100346.34;5072243;28;20024;-77
2022/03/06 05:20:49;;;;;;;60.35;34.40;;;;;;;-0.43;89.97;100345.50;5073041;28;20396;-77
2022/03/06 05:23:14;;;;;;;53.03;29.95;;;;;;;-0.39;89.91;100349.81;5073309;28;20027;-77
2022/03/06 05:25:39;;;;;;;51.08;28.63;;;;;;;-0.42;90.12;100349.75;5073477;28;20024;-77
2022/03/06 05:28:05;;;;;;;54.17;28.92;;;;;;;-0.42;89.77;100348.09;5072848;28;20067;-77
2022/03/06 05:30:31;;;;;;;53.63;27.92;;;;;;;-0.36;89.95;100360.94;5073325;28;20151;-77
2022/03/06 05:32:57;;;;;;;49.40;26.90;;;;;;;-0.35;90.23;100359.22;5072943;28;20082;-77
2022/03/06 05:35:23;;;;;;;51.42;27.70;;;;;;;-0.41;89.92;100348.94;5071777;28;20373;-77
2022/03/06 05:37:49;;;;;;;52.42;28.88;;;;;;;-0.38;90.43;100356.63;5072729;28;20031;-77
2022/03/06 05:40:14;;;;;;;52.75;29.58;;;;;;;-0.41;90.41;100351.50;5073171;28;20028;-77
2022/03/06 05:42:40;;;;;;;50.30;28.48;;;;;;;-0.49;90.29;100343.75;5072930;28;20053;-77
2022/03/06 05:45:06;;;;;;;56.47;29.52;;;;;;;-0.39;90.23;100354.91;5072473;28;20044;-77
2022/03/06 05:47:31;;;;;;;61.75;33.03;;;;;;;-0.37;90.25;100364.34;5071576;28;20031;-77
2022/03/06 05:49:56;;;;;;;66.28;36.65;;;;;;;-0.52;90.36;100329.22;5072641;28;20058;-77
2022/03/06 05:52:22;;;;;;;67.10;38.88;;;;;;;-0.43;90.25;100350.63;5072726;28;20032;-77
2022/03/06 05:54:47;;;;;;;52.03;31.35;;;;;;;-0.39;90.28;100354.91;5072780;28;20036;-77
2022/03/06 05:57:13;;;;;;;51.42;31.05;;;;;;;-0.42;89.72;100350.66;5072841;28;20480;-77
2022/03/06 05:59:38;;;;;;;44.90;26.40;;;;;;;-0.51;89.23;100333.50;5072681;28;20380;-77
2022/03/06 06:02:04;;;;;;;48.80;27.65;;;;;;;-0.38;89.27;100354.94;5072386;28;20108;-77
2022/03/06 06:04:29;;;;;;;48.17;28.75;;;;;;;-0.35;89.26;100354.97;5072540;28;20498;-77
2022/03/06 06:06:55;;;;;;;47.03;27.45;;;;;;;-0.35;89.33;100357.50;5072148;28;20388;-77
2022/03/06 06:09:20;;;;;;;44.65;26.98;;;;;;;-0.33;89.85;100360.13;5072652;28;20046;-76
2022/03/06 06:11:45;;;;;;;49.75;28.58;;;;;;;-0.47;89.23;100336.94;5072492;28;20025;-76
2022/03/06 06:14:11;;;;;;;52.03;29.77;;;;;;;-0.41;89.46;100346.38;5072294;28;20036;-77
2022/03/06 06:16:37;;;;;;;44.83;26.48;;;;;;;-0.39;89.74;100348.09;5071193;28;20075;-77
2022/03/06 06:19:03;;;;;;;50.58;27.92;;;;;;;-0.35;89.79;100357.50;5072114;28;20387;-77
2022/03/06 06:21:28;;;;;;;62.72;33.90;;;;;;;-0.36;89.00;100360.94;5072184;28;20064;-77
2022/03/06 06:23:54;;;;;;;66.35;34.72;;;;;;;-0.33;89.25;100367.78;5072211;28;20468;-77
2022/03/06 06:26:19;;;;;;;51.78;30.42;;;;;;;-0.29;89.40;100364.41;5070954;28;20029;-76
2022/03/06 06:28:45;;;;;;;58.28;35.08;;;;;;;-0.26;89.25;100365.28;5072236;28;20438;-76
2022/03/06 06:31:10;;;;;;;58.67;35.15;;;;;;;-0.17;89.02;100372.19;5071897;28;20028;-77
2022/03/06 06:33:35;;;;;;;58.88;31.67;;;;;;;-0.21;88.83;100354.22;5071841;28;20036;-76
2022/03/06 06:36:02;;;;;;;54.75;32.70;;;;;;;-0.10;89.33;100370.53;5071763;28;20024;-76
2022/03/06 06:38:28;;;;;;;52.47;29.30;;;;;;;-0.13;88.88;100357.69;5072280;28;20033;-77
2022/03/06 06:40:53;;;;;;;43.28;25.60;;;;;;;-0.07;89.10;100365.44;5071975;28;20020;-77
2022/03/06 06:43:19;;;;;;;45.38;25.83;;;;;;;-0.14;88.15;100346.59;5072168;28;20520;-77
2022/03/06 06:45:45;;;;;;;43.45;26.35;;;;;;;-0.07;87.78;100361.19;5070644;28;20048;-77
2022/03/06 06:48:11;;;;;;;42.92;25.17;;;;;;;-0.16;86.72;100343.19;5071731;28;20032;-77
2022/03/06 06:50:36;;;;;;;50.97;28.83;;;;;;;-0.07;86.75;100357.75;5071782;28;20036;-77
2022/03/06 06:53:02;;;;;;;52.50;29.23;;;;;;;-0.17;86.85;100338.91;5070179;28;20162;-77
2022/03/06 06:55:28;;;;;;;50.28;28.30;;;;;;;-0.03;87.07;100362.06;5071974;28;20036;-77
2022/03/06 06:57:53;;;;;;;44.65;26.65;;;;;;;-0.08;87.59;100351.78;5071723;28;20033;-77
2022/03/06 07:00:19;;;;;;;48.40;27.33;;;;;;;-0.10;86.85;100347.50;5071834;28;20021;-77
2022/03/06 07:02:46;;;;;;;52.22;29.20;;;;;;;-0.11;87.67;100351.75;5070497;28;20391;-77
2022/03/06 07:05:11;;;;;;;49.30;28.88;;;;;;;-0.05;87.37;100356.06;5070222;28;20040;-76
2022/03/06 07:07:37;;;;;;;43.97;26.50;;;;;;;-0.06;87.45;100354.34;5071959;28;20035;-77
2022/03/06 07:10:04;;;;;;;51.92;27.90;;;;;;;0.02;88.21;100360.38;5071748;28;20038;-77
2022/03/06 07:12:29;;;;;;;54.72;30.58;;;;;;;0.07;87.73;100358.72;5071808;28;20115;-77
2022/03/06 07:14:55;;;;;;;52.75;30.15;;;;;;;0.11;87.70;100360.44;5071813;28;20631;-77
2022/03/06 07:17:20;;;;;;;52.78;29.95;;;;;;;0.12;87.51;100359.59;5071688;28;20476;-77
2022/03/06 07:19:46;;;;;;;48.20;28.95;;;;;;;0.10;87.46;100348.50;5071844;28;20032;-76
2022/03/06 07:22:11;;;;;;;56.97;30.02;;;;;;;0.12;86.97;100351.06;5071550;28;20024;-77
2022/03/06 07:24:37;;;;;;;60.38;32.58;;;;;;;0.23;87.30;100364.81;5071745;28;20457;-77
2022/03/06 07:27:02;;;;;;;58.08;36.50;;;;;;;0.22;85.76;100353.72;5071236;28;20025;-76
2022/03/06 07:29:28;;;;;;;62.22;39.58;;;;;;;0.20;85.72;100351.97;5071504;28;20388;-77
2022/03/06 07:31:53;;;;;;;55.00;32.42;;;;;;;0.22;86.37;100356.28;5071484;28;20024;-77
2022/03/06 07:34:19;;;;;;;55.03;33.20;;;;;;;0.29;85.67;100359.72;5071726;28;20029;-77
2022/03/06 07:36:44;;;;;;;50.25;31.15;;;;;;;0.34;85.65;100352.94;5071370;28;20101;-77
2022/03/06 07:39:10;;;;;;;47.65;27.63;;;;;;;0.36;85.30;100348.66;5071121;28;20020;-78
2022/03/06 07:41:35;;;;;;;78.53;40.67;;;;;;;0.43;85.07;100354.69;5070099;28;20588;-82
2022/03/06 07:44:00;;;;;;;91.10;51.10;;;;;;;0.55;85.09;100370.16;5069840;28;20479;-82
2022/03/06 07:46:26;;;;;;;80.47;37.55;;;;;;;0.59;84.78;100371.88;5073112;28;20396;-81
2022/03/06 07:48:51;;;;;;;48.95;26.65;;;;;;;0.64;84.14;100372.75;5073692;28;20017;-80
2022/03/06 07:51:19;;;;;;;44.95;25.83;;;;;;;0.48;84.37;100340.19;5075138;28;20027;-81
2022/03/06 07:53:44;;;;;;;54.80;31.00;;;;;;;0.66;84.55;100365.91;5075330;28;20020;-80
2022/03/06 07:56:10;;;;;;;53.83;29.13;;;;;;;0.75;84.43;100370.22;5073635;28;20373;-80
2022/03/06 07:58:35;;;;;;;54.72;33.83;;;;;;;0.81;84.68;100371.97;5073949;28;20028;-80
2022/03/06 08:01:00;;;;;;;50.03;30.45;;;;;;;0.86;84.15;100365.16;5073347;28;20024;-80
2022/03/06 08:03:26;;;;;;;53.15;31.42;;;;;;;0.79;84.43;100342.91;5073918;28;20059;-79
2022/03/06 08:05:51;;;;;;;51.63;29.38;;;;;;;1.00;84.14;100373.75;5073478;28;20557;-79
2022/03/06 08:08:16;;;;;;;53.03;31.77;;;;;;;1.05;84.08;100364.34;5074630;28;20029;-79
2022/03/06 08:10:42;;;;;;;52.63;30.30;;;;;;;1.12;83.49;100372.94;5073546;28;20475;-79
2022/03/06 08:13:07;;;;;;;53.97;32.47;;;;;;;1.16;83.25;100367.81;5074767;28;20056;-79
2022/03/06 08:15:33;;;;;;;50.25;30.63;;;;;;;1.23;81.37;100368.72;5073233;28;20032;-79
2022/03/06 08:17:58;;;;;;;60.05;33.60;;;;;;;1.28;80.52;100372.16;5074558;28;20047;-79
2022/03/06 08:20:23;;;;;;;55.88;32.08;;;;;;;1.36;80.15;100367.88;5074802;28;20086;-79
2022/03/06 08:22:49;;;;;;;40.58;23.88;;;;;;;1.39;79.60;100370.47;5073383;28;20106;-79
2022/03/06 08:25:15;;;;;;;39.40;24.85;;;;;;;1.39;79.03;100370.47;5074385;28;20043;-79
2022/03/06 08:27:40;;;;;;;36.70;23.25;;;;;;;1.44;78.61;100370.47;5073165;28;20488;-84
2022/03/06 08:30:07;;;;;;;49.67;29.50;;;;;;;1.57;79.14;100373.91;5074128;28;20107;-83
2022/03/06 08:32:33;;;;;;;80.38;51.75;;;;;;;1.54;78.85;100366.22;5074295;28;20111;-83
2022/03/06 08:34:59;;;;;;;55.38;35.83;;;;;;;1.55;78.63;100357.63;5074062;28;20086;-83
2022/03/06 08:37:24;;;;;;;73.25;44.45;;;;;;;1.67;78.49;100370.50;5073116;28;20025;-83
2022/03/06 08:39:50;;;;;;;48.65;28.13;;;;;;;1.70;77.80;100365.38;5073014;28;20357;-83
2022/03/06 08:42:16;;;;;;;41.42;26.75;;;;;;;1.59;78.02;100338.81;5074048;28;20032;-83
2022/03/06 08:44:42;;;;;;;69.38;40.25;;;;;;;1.73;77.01;100350.84;5072684;28;20060;-83
2022/03/06 08:47:08;;;;;;;45.60;27.65;;;;;;;1.82;76.82;100364.53;5072541;28;20025;-83
2022/03/06 08:49:34;;;;;;;41.38;26.05;;;;;;;1.78;76.99;100355.13;5072911;28;20475;-83
2022/03/06 08:51:59;;;;;;;43.35;25.48;;;;;;;1.84;76.91;100350.81;5072516;28;20025;-83
2022/03/06 08:54:24;;;;;;;47.92;30.30;;;;;;;1.81;76.64;100337.13;5072739;28;20039;-83
2022/03/06 08:56:50;;;;;;;40.72;26.17;;;;;;;2.02;77.03;100361.94;5072182;28;20032;-83
2022/03/06 08:59:16;;;;;;;39.22;24.33;;;;;;;2.08;77.12;100356.81;5072325;28;20391;-83
2022/03/06 09:01:41;;;;;;;51.03;30.98;;;;;;;1.98;76.94;100326.00;5073826;28;20062;-83
2022/03/06 09:04:07;;;;;;;48.03;27.33;;;;;;;2.24;76.98;100358.50;5072405;28;20033;-83
2022/03/06 09:06:33;;;;;;;46.58;27.33;;;;;;;2.07;75.88;100330.28;5073627;28;20459;-83
2022/03/06 09:08:58;;;;;;;39.45;24.65;;;;;;;2.13;75.22;100337.97;5072358;28;20027;-83
2022/03/06 09:11:24;;;;;;;41.80;25.38;;;;;;;2.19;74.91;100349.94;5073653;28;20510;-83
2022/03/06 09:13:49;;;;;;;37.47;22.70;;;;;;;2.27;74.54;100371.34;5072336;28;20025;-83
2022/03/06 09:16:14;;;;;;;38.20;22.38;;;;;;;2.16;74.35;100339.69;5072039;28;20108;-82
2022/03/06 09:18:40;;;;;;;41.33;23.17;;;;;;;2.19;74.69;100337.09;5073415;28;20024;-83
2022/03/06 09:21:06;;;;;;;36.97;22.52;;;;;;;2.20;74.51;100336.25;5073288;28;20028;-83
2022/03/06 09:23:31;;;;;;;43.90;24.65;;;;;;;2.26;74.58;100356.78;5072161;28;20032;-85
2022/03/06 09:25:56;;;;;;;41.20;22.60;;;;;;;2.29;74.79;100349.06;5072007;28;20366;-85
2022/03/06 09:28:23;;;;;;;36.33;22.27;;;;;;;2.40;74.44;100359.31;5071736;28;20040;-91
2022/03/06 09:30:49;;;;;;;36.70;23.08;;;;;;;2.41;74.06;100366.19;5074171;28;20028;-92
2022/03/06 09:33:14;;;;;;;36.42;21.85;;;;;;;2.43;74.01;100359.31;5073630;28;20028;-92
2022/03/06 09:35:41;;;;;;;38.90;23.25;;;;;;;2.47;74.01;100369.59;5073919;28;20023;-93
2022/03/06 09:38:06;;;;;;;40.55;25.15;;;;;;;2.43;73.67;100367.88;5073899;28;20032;-93
2022/03/06 09:40:32;;;;;;;58.72;35.40;;;;;;;2.42;73.37;100366.19;5074406;28;20525;-94
2022/03/06 09:42:58;;;;;;;71.82;37.45;;;;;;;2.26;73.47;100336.22;5073828;28;20029;-92
2022/03/06 09:45:23;;;;;;;48.45;28.67;;;;;;;2.45;72.48;100370.47;5073529;28;20136;-93
2022/03/06 09:47:49;;;;;;;119.32;50.08;;;;;;;2.40;71.77;100367.03;5073620;28;20031;-92
2022/03/06 09:50:15;;;;;;;57.58;27.25;;;;;;;2.28;71.10;100356.81;5073928;28;20066;-92
2022/03/06 09:52:41;;;;;;;31.30;20.88;;;;;;;2.38;70.85;100368.78;5073177;28;20024;-87
2022/03/06 09:55:08;;;;;;;34.83;22.88;;;;;;;2.28;70.28;100351.66;5072243;28;20067;-82
2022/03/06 09:57:33;;;;;;;47.03;25.20;;;;;;;2.36;70.65;100366.22;5071138;28;20025;-82
2022/03/06 09:59:59;;;;;;;36.10;23.70;;;;;;;2.39;70.61;100370.47;5071221;28;20036;-82
2022/03/06 10:02:24;;;;;;;34.42;22.02;;;;;;;2.40;71.10;100365.34;5070771;28;20035;-82
2022/03/06 10:04:52;;;;;;;35.38;20.85;;;;;;;2.35;70.54;100373.91;5071418;28;20392;-82
2022/03/06 10:07:19;;;;;;;45.65;24.58;;;;;;;2.22;70.20;100373.91;5071733;28;20027;-82
2022/03/06 10:09:46;;;;;;;27.15;19.45;;;;;;;2.30;69.66;100378.19;5071217;28;20055;-82
2022/03/06 10:12:32;;;;;;;32.45;20.20;;;;;;;2.23;70.07;100380.78;5072260;28;20036;-82
2022/03/06 10:15:07;;;;;;;105.32;50.85;;;;;;;2.27;70.36;100379.06;5070971;28;20028;-82
2022/03/06 10:17:34;;;;;;;110.43;54.10;;;;;;;2.34;69.97;100382.47;5071258;28;20136;-82
2022/03/06 10:20:04;;;;;;;58.00;31.80;;;;;;;2.34;69.70;100379.91;5071167;28;20387;-82
2022/03/06 10:22:32;;;;;;;82.97;39.60;;;;;;;2.33;69.59;100378.22;5072523;28;20055;-82
2022/03/06 10:24:58;;;;;;;144.35;61.75;;;;;;;2.31;70.18;100372.19;5071020;28;20024;-81
2022/03/06 10:27:41;;;;;;;63.30;31.90;;;;;;;2.38;70.10;100382.47;5070645;28;20034;-81
2022/03/06 10:30:37;;;;;;;49.88;27.48;;;;;;;2.40;69.90;100367.91;5071975;28;20033;-82
2022/03/06 10:33:10;;;;;;;70.78;36.03;;;;;;;2.48;69.93;100365.31;5070932;28;20013;-81
2022/03/06 10:35:36;;;;;;;44.63;26.65;;;;;;;2.58;69.92;100367.00;5072296;28;20050;-82
2022/03/06 10:38:23;;;;;;;38.40;23.15;;;;;;;2.47;69.90;100367.03;5072335;28;20534;-82
2022/03/06 10:40:50;;;;;;;31.10;19.65;;;;;;;2.48;69.77;100365.31;5070888;28;20032;-81
2022/03/06 10:43:27;;;;;;;35.85;24.33;;;;;;;2.44;69.73;100355.88;5070333;28;20017;-82
2022/03/06 10:46:14;;;;;;;34.28;21.23;;;;;;;2.37;68.93;100346.50;5070460;28;20128;-82
2022/03/06 10:48:41;;;;;;;43.63;24.80;;;;;;;2.46;69.26;100357.59;5070866;28;20033;-83
2022/03/06 10:51:10;;;;;;;53.95;32.15;;;;;;;2.50;69.26;100355.88;5070544;28;20545;-82
2022/03/06 10:53:35;;;;;;;42.33;26.02;;;;;;;2.42;68.95;100352.47;5072008;28;20028;-82
2022/03/06 10:56:12;;;;;;;52.22;30.23;;;;;;;2.45;69.22;100357.63;5072214;28;20116;-82
2022/03/06 10:58:41;;;;;;;44.28;25.67;;;;;;;2.47;69.57;100348.19;5070435;28;20492;-83
2022/03/06 11:01:06;;;;;;;68.88;27.70;;;;;;;2.40;68.58;100355.06;5071742;28;20031;-82
2022/03/06 11:03:35;;;;;;;101.78;46.45;;;;;;;2.33;68.76;100345.66;5071916;28;20380;-82
2022/03/06 11:06:02;;;;;;;58.33;34.80;;;;;;;2.28;68.26;100346.53;5071840;28;20035;-82
2022/03/06 11:08:27;;;;;;;30.05;20.30;;;;;;;2.21;67.98;100341.38;5071510;28;20059;-82